Time;durP1;ratioP1;P1;durP2;ratioP2;P2;SDS_P1;SDS_P2;PMS_P1;PMS_P2;Temp;Humidity;BMP_temperature;BMP_pressure;BME280_temperature;BME280_humidity;BME280_pressure;Samples;Min_cycle;Max_cycle;Signal;HPM_P1;HPM_P2
2022/11/22 00:02:19;;;;;;;2.00;1.20;;;21.30;56.60;;;;;;5027938;28;20030;-65
2022/11/22 00:04:44;;;;;;;1.58;1.00;;;21.20;56.50;;;;;;5024814;28;20036;-65
2022/11/22 00:07:10;;;;;;;2.42;1.13;;;21.20;56.50;;;;;;5030564;28;20107;-64
2022/11/22 00:09:35;;;;;;;1.88;1.27;;;21.20;56.60;;;;;;5030099;28;20507;-64
2022/11/22 00:12:01;;;;;;;2.17;1.00;;;21.20;56.50;;;;;;5031891;28;20021;-64
2022/11/22 00:14:27;;;;;;;2.50;1.20;;;21.20;56.60;;;;;;5021040;28;20468;-65
2022/11/22 00:16:53;;;;;;;1.77;1.00;;;21.20;56.60;;;;;;5026693;28;20021;-64
2022/11/22 00:19:19;;;;;;;1.98;0.90;;;21.20;56.60;;;;;;5036592;28;20472;-64
2022/11/22 00:21:44;;;;;;;2.50;1.13;;;21.20;56.60;;;;;;5038018;28;20031;-65
2022/11/22 00:24:13;;;;;;;1.45;0.90;;;21.20;56.60;;;;;;5028520;28;20503;-64
2022/11/22 00:26:39;;;;;;;2.28;1.00;;;21.10;56.60;;;;;;5029114;28;20022;-64
2022/11/22 00:29:04;;;;;;;2.08;1.10;;;21.10;56.50;;;;;;5023721;28;20036;-64
2022/11/22 00:31:30;;;;;;;2.13;1.15;;;21.10;56.60;;;;;;5021632;28;20029;-65
2022/11/22 00:33:56;;;;;;;2.03;1.02;;;21.10;56.60;;;;;;5030103;28;20147;-65
2022/11/22 00:36:22;;;;;;;2.00;1.00;;;21.10;56.60;;;;;;5034058;28;20021;-64
2022/11/22 00:38:48;;;;;;;1.77;0.90;;;21.10;56.60;;;;;;5032902;28;20042;-64
2022/11/22 00:41:14;;;;;;;1.60;1.00;;;21.10;56.60;;;;;;5028496;28;20106;-65
2022/11/22 00:43:40;;;;;;;1.98;0.95;;;21.10;57.20;;;;;;5030372;28;20567;-64
2022/11/22 00:46:05;;;;;;;1.83;1.10;;;21.00;56.60;;;;;;5026543;28;20437;-64
2022/11/22 00:48:31;;;;;;;1.92;0.90;;;21.00;56.60;;;;;;5022269;28;20068;-64
2022/11/22 00:50:57;;;;;;;1.52;1.00;;;21.00;56.70;;;;;;5026384;28;20092;-64
2022/11/22 00:53:23;;;;;;;1.67;0.90;;;21.00;56.60;;;;;;5039989;28;20488;-64
2022/11/22 00:55:49;;;;;;;1.55;0.85;;;21.00;56.70;;;;;;5035848;28;20055;-64
2022/11/22 00:58:15;;;;;;;2.03;1.05;;;21.00;56.70;;;;;;5035988;28;20477;-63
2022/11/22 01:00:40;;;;;;;1.45;0.90;;;21.00;56.70;;;;;;5028109;28;20087;-64
2022/11/22 01:03:09;;;;;;;1.92;1.17;;;21.00;56.70;;;;;;5021609;28;20040;-63
2022/11/22 01:05:35;;;;;;;1.33;0.90;;;21.00;56.70;;;;;;5033059;28;20103;-63
2022/11/22 01:08:00;;;;;;;1.70;1.00;;;21.00;56.70;;;;;;5025906;28;20025;-64
2022/11/22 01:10:26;;;;;;;1.35;1.00;;;21.00;56.70;;;;;;5023634;28;20057;-64
2022/11/22 01:12:51;;;;;;;1.30;0.90;;;21.00;56.70;;;;;;5035384;28;20473;-64
2022/11/22 01:15:17;;;;;;;2.22;1.15;;;20.90;56.60;;;;;;5033632;28;20033;-64
2022/11/22 01:17:42;;;;;;;1.63;1.08;;;20.90;56.60;;;;;;5027254;28;20117;-65
2022/11/22 01:20:09;;;;;;;1.65;0.90;;;20.90;56.60;;;;;;5029993;28;20040;-64
2022/11/22 01:22:34;;;;;;;1.85;0.90;;;20.90;56.60;;;;;;5027358;28;20030;-64
2022/11/22 01:25:00;;;;;;;1.70;1.10;;;20.90;56.70;;;;;;5026506;28;20044;-64
2022/11/22 01:27:25;;;;;;;1.58;0.90;;;20.90;56.70;;;;;;5034975;28;20543;-64
2022/11/22 01:29:51;;;;;;;2.35;1.10;;;20.90;56.70;;;;;;5023885;28;20385;-65
2022/11/22 01:32:17;;;;;;;2.08;0.90;;;20.90;56.70;;;;;;5047702;28;20029;-63
2022/11/22 01:34:42;;;;;;;1.88;1.10;;;20.90;56.80;;;;;;5037775;28;20076;-64
2022/11/22 01:37:08;;;;;;;1.83;0.95;;;20.80;56.70;;;;;;5041024;28;20116;-64
2022/11/22 01:39:33;;;;;;;1.50;1.00;;;20.80;56.70;;;;;;5037053;28;20038;-64
2022/11/22 01:41:59;;;;;;;1.80;0.90;;;20.80;56.70;;;;;;5026824;28;20061;-64
2022/11/22 01:44:28;;;;;;;1.65;1.00;;;20.80;57.30;;;;;;5038018;28;20130;-64
2022/11/22 01:47:04;;;;;;;1.45;0.82;;;20.80;56.80;;;;;;5024400;28;20544;-65
2022/11/22 01:49:47;;;;;;;1.40;0.90;;;20.80;57.30;;;;;;5030316;28;20506;-63
2022/11/22 01:52:18;;;;;;;1.73;1.10;;;20.80;56.80;;;;;;5042133;28;20473;-64
2022/11/22 01:54:48;;;;;;;1.15;0.80;;;20.80;56.80;;;;;;5044280;28;20563;-64
2022/11/22 01:57:19;;;;;;;1.13;0.80;;;20.80;56.80;;;;;;5038752;28;20555;-64
2022/11/22 01:59:55;;;;;;;1.60;0.90;;;20.80;56.80;;;;;;5021150;28;20038;-64
2022/11/22 02:02:21;;;;;;;1.75;0.90;;;20.80;56.80;;;;;;5032555;28;20037;-63
2022/11/22 02:04:49;;;;;;;1.42;0.90;;;20.80;56.80;;;;;;5031076;28;20041;-64
2022/11/22 02:07:25;;;;;;;1.42;0.93;;;20.80;56.80;;;;;;5034516;28;20025;-63
2022/11/22 02:09:52;;;;;;;1.58;1.00;;;20.80;56.80;;;;;;5034837;28;20076;-63
2022/11/22 02:12:22;;;;;;;1.27;0.80;;;20.70;56.80;;;;;;5033502;28;20036;-63
2022/11/22 02:14:48;;;;;;;1.60;1.00;;;20.70;56.80;;;;;;5028342;28;20036;-64
2022/11/22 02:17:14;;;;;;;2.58;0.80;;;20.70;56.80;;;;;;5029069;28;20024;-65
2022/11/22 02:19:45;;;;;;;1.30;0.80;;;20.70;56.80;;;;;;5029289;28;20030;-63
2022/11/22 02:22:21;;;;;;;1.40;0.82;;;20.70;56.80;;;;;;5030987;28;20203;-63
2022/11/22 02:25:06;;;;;;;1.65;0.90;;;20.70;56.80;;;;;;5027146;28;20031;-63
2022/11/22 02:27:32;;;;;;;1.50;1.00;;;20.70;56.80;;;;;;5040480;28;20361;-64
2022/11/22 02:29:57;;;;;;;1.25;0.90;;;20.70;56.90;;;;;;5038087;28;20112;-66
2022/11/22 02:32:23;;;;;;;1.13;0.70;;;20.70;56.80;;;;;;5034869;28;20372;-65
2022/11/22 02:34:50;;;;;;;1.25;0.80;;;20.70;56.90;;;;;;5034896;28;20114;-64
2022/11/22 02:37:24;;;;;;;1.58;0.90;;;20.60;56.80;;;;;;5043047;28;20029;-65
2022/11/22 02:39:56;;;;;;;1.60;0.90;;;20.60;56.80;;;;;;5039715;28;20530;-64
2022/11/22 02:42:24;;;;;;;1.63;0.80;;;20.60;56.80;;;;;;5039486;28;20087;-64
2022/11/22 02:44:49;;;;;;;1.58;1.02;;;20.60;56.80;;;;;;5031320;28;20481;-65
2022/11/22 02:47:15;;;;;;;1.40;0.82;;;20.60;56.90;;;;;;5027388;28;20026;-64
2022/11/22 02:49:41;;;;;;;1.30;0.90;;;20.60;56.90;;;;;;5029616;28;20021;-64
2022/11/22 02:52:07;;;;;;;1.25;0.90;;;20.60;56.90;;;;;;5016388;28;20065;-65
2022/11/22 02:54:32;;;;;;;1.10;0.70;;;20.60;56.90;;;;;;5028804;28;20076;-64
2022/11/22 02:56:58;;;;;;;1.75;0.90;;;20.60;56.90;;;;;;5034032;28;20040;-64
2022/11/22 02:59:24;;;;;;;1.23;0.80;;;20.60;56.90;;;;;;5032547;28;20117;-64
2022/11/22 03:01:49;;;;;;;1.27;0.90;;;20.60;56.90;;;;;;5026546;28;20104;-64
2022/11/22 03:04:23;;;;;;;1.42;0.90;;;20.60;56.90;;;;;;5027401;28;20520;-64
2022/11/22 03:06:50;;;;;;;1.83;1.00;;;20.60;56.90;;;;;;5036372;28;20013;-65
2022/11/22 03:09:16;;;;;;;1.17;0.80;;;20.50;56.90;;;;;;5038894;28;20025;-64
2022/11/22 03:11:42;;;;;;;1.30;0.88;;;20.50;56.90;;;;;;5033843;28;20040;-64
2022/11/22 03:14:08;;;;;;;1.38;0.80;;;20.50;56.90;;;;;;5037956;28;20033;-64
2022/11/22 03:16:33;;;;;;;1.45;1.00;;;20.50;57.00;;;;;;5041922;28;20025;-64
2022/11/22 03:18:59;;;;;;;1.25;0.82;;;20.50;57.00;;;;;;5033385;28;20473;-64
2022/11/22 03:21:24;;;;;;;1.63;0.95;;;20.50;57.00;;;;;;5041441;28;20030;-64
2022/11/22 03:23:50;;;;;;;1.67;0.80;;;20.50;57.00;;;;;;5034109;28;20367;-64
2022/11/22 03:26:16;;;;;;;1.40;0.90;;;20.50;57.00;;;;;;5030027;28;20136;-64
2022/11/22 03:28:41;;;;;;;0.77;0.70;;;20.50;57.00;;;;;;5028586;28;20472;-64
2022/11/22 03:31:07;;;;;;;1.63;0.90;;;20.50;57.00;;;;;;5023521;28;20037;-64
2022/11/22 03:33:34;;;;;;;1.45;0.77;;;20.50;57.00;;;;;;5033074;28;20745;-64
2022/11/22 03:35:59;;;;;;;1.27;0.80;;;20.50;57.00;;;;;;5023873;28;20113;-64
2022/11/22 03:38:25;;;;;;;1.48;0.90;;;20.50;57.00;;;;;;5026418;28;20117;-64
2022/11/22 03:40:51;;;;;;;1.40;0.90;;;20.50;57.00;;;;;;5027127;28;20515;-64
2022/11/22 03:43:16;;;;;;;2.03;0.90;;;20.50;57.10;;;;;;5025642;28;20029;-64
2022/11/22 03:45:45;;;;;;;1.13;0.80;;;20.50;57.00;;;;;;5039858;28;20064;-65
2022/11/22 03:48:11;;;;;;;1.23;0.82;;;20.40;57.00;;;;;;5037404;28;20105;-64
2022/11/22 03:50:37;;;;;;;1.30;0.80;;;20.40;57.00;;;;;;5025026;28;20112;-64
2022/11/22 03:53:02;;;;;;;1.73;0.80;;;20.40;57.00;;;;;;5037723;28;20099;-65
2022/11/22 03:55:28;;;;;;;1.08;0.77;;;20.40;57.00;;;;;;5034905;28;20509;-64
2022/11/22 03:57:53;;;;;;;1.30;1.00;;;20.40;57.00;;;;;;5032555;28;20032;-63
2022/11/22 04:00:19;;;;;;;1.55;0.80;;;20.40;57.00;;;;;;5032926;28;20079;-62
2022/11/22 04:02:45;;;;;;;1.42;0.90;;;20.40;57.00;;;;;;5024688;28;20033;-62
2022/11/22 04:05:10;;;;;;;1.30;0.73;;;20.40;57.00;;;;;;5022663;28;20065;-63
2022/11/22 04:07:36;;;;;;;1.50;0.88;;;20.40;57.00;;;;;;5011553;28;20027;-63
2022/11/22 04:10:03;;;;;;;1.23;0.80;;;20.40;57.00;;;;;;5030130;28;20025;-63
2022/11/22 04:12:29;;;;;;;1.08;0.73;;;20.40;57.00;;;;;;5032417;28;20029;-63
2022/11/22 04:15:07;;;;;;;1.25;0.82;;;20.40;57.60;;;;;;5030189;28;20121;-63
2022/11/22 04:17:44;;;;;;;1.52;0.90;;;20.40;57.10;;;;;;5030086;28;20028;-64
2022/11/22 04:22:59;;;;;;;1.85;0.95;;;20.40;57.10;;;;;;5037084;28;20510;-63
2022/11/22 04:25:26;;;;;;;1.10;0.70;;;20.40;57.10;;;;;;5031133;28;20021;-63
2022/11/22 04:27:52;;;;;;;1.33;0.82;;;20.40;57.10;;;;;;5034651;28;20021;-62
2022/11/22 04:30:17;;;;;;;1.20;0.90;;;20.30;57.00;;;;;;5030963;28;20021;-63
2022/11/22 04:32:46;;;;;;;1.17;0.80;;;20.40;57.10;;;;;;5026188;28;20025;-64
2022/11/22 04:35:17;;;;;;;1.25;0.90;;;20.30;57.00;;;;;;5028619;28;20450;-63
2022/11/22 04:37:50;;;;;;;1.70;1.17;;;20.40;57.10;;;;;;5030045;28;20026;-62
2022/11/22 04:40:15;;;;;;;1.23;0.80;;;20.30;57.10;;;;;;5020625;28;20489;-63
2022/11/22 04:45:25;;;;;;;1.05;0.70;;;20.40;57.10;;;;;;5025876;28;20102;-64
2022/11/22 04:47:59;;;;;;;0.80;0.70;;;20.30;57.10;;;;;;5027202;28;20472;-63
2022/11/22 04:53:12;;;;;;;1.50;0.90;;;20.30;57.10;;;;;;5029937;28;20076;-64
2022/11/22 04:55:38;;;;;;;0.98;0.80;;;20.30;57.10;;;;;;5030621;28;20026;-63
2022/11/22 04:58:03;;;;;;;1.52;0.80;;;20.30;57.10;;;;;;5025063;28;20120;-63
2022/11/22 05:00:29;;;;;;;0.98;0.70;;;20.30;57.10;;;;;;5037015;28;20103;-64
2022/11/22 05:02:56;;;;;;;1.02;0.70;;;20.30;57.10;;;;;;5030496;28;20030;-62
2022/11/22 05:05:23;;;;;;;0.90;0.70;;;20.30;57.10;;;;;;5015221;28;20033;-64
2022/11/22 05:07:49;;;;;;;0.90;0.70;;;20.30;57.10;;;;;;5031248;28;20142;-64
2022/11/22 05:10:15;;;;;;;1.08;0.73;;;20.30;57.70;;;;;;5030208;28;20037;-64
2022/11/22 05:12:41;;;;;;;0.73;0.68;;;20.30;57.10;;;;;;5044215;28;20476;-64
2022/11/22 05:15:09;;;;;;;1.08;0.73;;;20.30;57.30;;;;;;5017741;28;20030;-65
2022/11/22 05:17:36;;;;;;;1.15;0.70;;;20.30;57.20;;;;;;5030171;28;20017;-64
2022/11/22 05:20:06;;;;;;;1.42;0.93;;;20.30;57.70;;;;;;5033490;28;20464;-64
2022/11/22 05:25:17;;;;;;;1.10;0.80;;;20.30;57.20;;;;;;5020938;28;20036;-63
2022/11/22 05:27:42;;;;;;;1.65;0.90;;;20.30;57.30;;;;;;5031905;28;20029;-64
2022/11/22 05:30:08;;;;;;;1.58;0.82;;;20.30;57.40;;;;;;5035971;28;20473;-64
2022/11/22 05:32:34;;;;;;;1.52;0.90;;;20.20;57.40;;;;;;5033303;28;20444;-64
2022/11/22 05:35:00;;;;;;;2.08;0.88;;;20.20;58.00;;;;;;5033547;28;20033;-64
2022/11/22 05:37:26;;;;;;;1.25;0.90;;;20.20;57.50;;;;;;5034079;28;20029;-64
2022/11/22 05:39:51;;;;;;;1.20;0.80;;;20.20;57.60;;;;;;5024094;28;20485;-64
2022/11/22 05:42:17;;;;;;;0.98;0.77;;;20.20;57.50;;;;;;5026110;28;20029;-64
2022/11/22 05:44:43;;;;;;;1.27;0.70;;;20.20;57.50;;;;;;5026043;28;20047;-64
2022/11/22 05:47:09;;;;;;;1.42;0.90;;;20.20;57.50;;;;;;5019065;28;20026;-63
2022/11/22 05:49:35;;;;;;;1.15;0.70;;;20.30;57.50;;;;;;5040662;28;20025;-63
2022/11/22 05:52:02;;;;;;;0.88;0.70;;;20.20;57.40;;;;;;5024799;28;20021;-64
2022/11/22 05:54:29;;;;;;;1.42;0.80;;;20.20;57.50;;;;;;5031261;28;20029;-64
2022/11/22 05:56:54;;;;;;;0.90;0.80;;;20.20;57.50;;;;;;5028785;28;20094;-64
2022/11/22 05:59:20;;;;;;;1.20;0.80;;;20.20;57.50;;;;;;5023394;28;20026;-64
2022/11/22 06:01:46;;;;;;;1.15;0.70;;;20.20;57.50;;;;;;5023870;28;20029;-64
2022/11/22 06:04:12;;;;;;;1.17;0.80;;;20.20;57.50;;;;;;5023994;28;20389;-64
2022/11/22 06:06:37;;;;;;;1.20;0.80;;;20.20;57.50;;;;;;5035815;28;20083;-64
2022/11/22 06:09:03;;;;;;;1.48;0.82;;;20.20;57.60;;;;;;5037647;28;20026;-64
2022/11/22 06:11:29;;;;;;;1.42;0.80;;;20.20;57.70;;;;;;5023202;28;20018;-64
2022/11/22 06:14:01;;;;;;;1.08;0.85;;;20.20;57.70;;;;;;5031792;28;20108;-64
2022/11/22 06:16:28;;;;;;;1.70;0.90;;;20.20;57.80;;;;;;5029673;28;20116;-65
2022/11/22 06:18:54;;;;;;;1.48;0.80;;;20.20;58.50;;;;;;5029963;28;20037;-65
2022/11/22 06:21:24;;;;;;;1.10;0.80;;;20.30;59.40;;;;;;5030196;28;20076;-64
2022/11/22 06:23:51;;;;;;;1.00;0.70;;;20.50;59.50;;;;;;5037248;28;20391;-65
2022/11/22 06:26:19;;;;;;;1.08;0.77;;;20.70;59.40;;;;;;5031590;28;20053;-65
2022/11/22 06:28:45;;;;;;;1.65;0.80;;;20.90;59.00;;;;;;5027280;28;20032;-65
2022/11/22 06:31:16;;;;;;;1.00;0.70;;;20.90;58.80;;;;;;5023150;28;20022;-66
2022/11/22 06:33:42;;;;;;;1.02;0.70;;;20.90;58.70;;;;;;5032736;28;20029;-65
2022/11/22 06:36:11;;;;;;;0.98;0.70;;;20.90;58.60;;;;;;5026975;28;20052;-64
2022/11/22 06:38:37;;;;;;;1.35;0.80;;;20.90;58.50;;;;;;5029391;28;20041;-64
2022/11/22 06:41:06;;;;;;;1.35;0.82;;;20.90;59.10;;;;;;5023991;28;20038;-65
2022/11/22 06:43:33;;;;;;;1.63;0.90;;;21.10;59.40;;;;;;5032424;28;20094;-65
2022/11/22 06:46:00;;;;;;;1.30;0.80;;;21.40;59.10;;;;;;5037884;28;20026;-64
2022/11/22 06:48:28;;;;;;;1.92;0.70;;;21.60;58.90;;;;;;5047110;28;20345;-64
2022/11/22 06:51:01;;;;;;;0.63;0.55;;;21.70;58.40;;;;;;5039929;28;20484;-65
2022/11/22 06:53:31;;;;;;;0.57;0.50;;;21.80;58.30;;;;;;5021678;28;20516;-65
2022/11/22 06:56:09;;;;;;;0.80;0.70;;;21.80;58.10;;;;;;5026532;28;20496;-65
2022/11/22 06:58:36;;;;;;;0.70;0.50;;;21.70;58.10;;;;;;5034120;28;20022;-65
2022/11/22 07:01:06;;;;;;;1.00;0.60;;;21.70;58.30;;;;;;5036485;28;20382;-65
2022/11/22 07:03:36;;;;;;;1.08;0.63;;;21.70;58.30;;;;;;5034637;28;20560;-65
2022/11/22 07:06:03;;;;;;;1.05;0.65;;;21.70;58.50;;;;;;5023889;28;20384;-64
2022/11/22 07:08:29;;;;;;;1.98;0.98;;;21.90;58.70;;;;;;5036254;28;20040;-64
2022/11/22 07:11:01;;;;;;;0.93;0.70;;;22.10;58.10;;;;;;5027546;28;20022;-65
2022/11/22 07:13:27;;;;;;;0.95;0.55;;;22.20;57.80;;;;;;5033450;28;20025;-64
2022/11/22 07:15:57;;;;;;;0.82;0.52;;;22.20;57.70;;;;;;5034229;28;20028;-63
2022/11/22 07:18:23;;;;;;;1.00;0.63;;;22.20;57.80;;;;;;5032236;28;20049;-64
2022/11/22 07:20:49;;;;;;;0.80;0.60;;;22.20;58.40;;;;;;5034236;28;20025;-64
2022/11/22 07:23:14;;;;;;;1.08;0.70;;;22.20;58.20;;;;;;5038513;28;20329;-63
2022/11/22 07:25:44;;;;;;;1.15;0.70;;;22.30;58.50;;;;;;5030509;28;20030;-65
2022/11/22 07:28:10;;;;;;;1.10;0.70;;;22.60;58.10;;;;;;5012449;28;20042;-64
2022/11/22 07:30:36;;;;;;;0.63;0.47;;;22.80;57.60;;;;;;5015767;28;20032;-64
2022/11/22 07:33:02;;;;;;;0.75;0.50;;;22.90;57.20;;;;;;5044028;28;20022;-64
2022/11/22 07:35:28;;;;;;;1.30;0.60;;;22.90;57.20;;;;;;5035320;28;20426;-63
2022/11/22 07:37:53;;;;;;;0.85;0.50;;;22.80;57.30;;;;;;5033432;28;20408;-64
2022/11/22 07:40:19;;;;;;;0.88;0.60;;;22.80;57.40;;;;;;5037134;28;20042;-64
2022/11/22 07:42:45;;;;;;;0.75;0.50;;;22.70;57.60;;;;;;5038150;28;20080;-65
2022/11/22 07:45:11;;;;;;;4.22;0.70;;;22.80;57.60;;;;;;5021920;28;20478;-65
2022/11/22 07:47:36;;;;;;;0.98;0.60;;;22.90;57.90;;;;;;5025252;28;20026;-64
2022/11/22 07:50:02;;;;;;;0.75;0.60;;;23.00;57.50;;;;;;5033124;28;20060;-64
2022/11/22 07:52:27;;;;;;;0.50;0.40;;;23.00;57.20;;;;;;5038698;28;20021;-65
2022/11/22 07:54:53;;;;;;;0.75;0.50;;;23.00;57.40;;;;;;5029546;28;20096;-64
2022/11/22 07:57:19;;;;;;;0.80;0.55;;;23.00;57.70;;;;;;5029031;28;20033;-64
2022/11/22 07:59:44;;;;;;;0.82;0.50;;;23.00;58.20;;;;;;5031858;28;20029;-65
2022/11/22 08:02:11;;;;;;;0.75;0.55;;;23.00;57.80;;;;;;5036908;28;20388;-64
2022/11/22 08:04:36;;;;;;;1.15;0.52;;;23.00;57.90;;;;;;5033864;28;20037;-63
2022/11/22 08:07:02;;;;;;;0.50;0.45;;;23.00;57.90;;;;;;5029408;28;20145;-65
2022/11/22 08:09:28;;;;;;;0.98;0.60;;;23.10;57.90;;;;;;5042550;28;20028;-64
2022/11/22 08:11:54;;;;;;;1.25;0.50;;;23.10;58.00;;;;;;5035701;28;20362;-63
2022/11/22 08:14:19;;;;;;;0.45;0.45;;;23.10;57.80;;;;;;5038205;28;20469;-64
2022/11/22 08:16:45;;;;;;;0.50;0.50;;;23.10;57.80;;;;;;5036834;28;20054;-63
2022/11/22 08:19:14;;;;;;;0.50;0.50;;;23.10;57.70;;;;;;5027997;28;20053;-65
2022/11/22 08:21:40;;;;;;;0.60;0.50;;;23.10;57.80;;;;;;5032991;28;20034;-63
2022/11/22 08:24:06;;;;;;;1.15;0.60;;;23.10;57.80;;;;;;5010468;28;20087;-64
2022/11/22 08:26:33;;;;;;;0.70;0.50;;;23.20;57.90;;;;;;5031699;28;20473;-65
2022/11/22 08:28:59;;;;;;;0.50;0.50;;;23.20;57.80;;;;;;5032224;28;20421;-64
2022/11/22 08:31:25;;;;;;;1.58;0.60;;;23.20;57.80;;;;;;5027720;28;20037;-65
2022/11/22 08:33:52;;;;;;;0.77;0.60;;;23.20;57.70;;;;;;5034818;28;20041;-64
2022/11/22 08:36:18;;;;;;;0.50;0.50;;;23.20;57.80;;;;;;5035781;28;20407;-64
2022/11/22 08:38:44;;;;;;;0.90;0.60;;;23.20;57.80;;;;;;5027638;28;20039;-63
2022/11/22 08:41:10;;;;;;;0.75;0.50;;;23.20;57.60;;;;;;5035285;28;20492;-64
2022/11/22 08:43:36;;;;;;;0.73;0.60;;;23.20;57.70;;;;;;5032042;28;20022;-64
2022/11/22 08:46:02;;;;;;;0.50;0.50;;;23.30;57.60;;;;;;5032158;28;20025;-64
2022/11/22 08:48:29;;;;;;;0.65;0.50;;;23.30;57.80;;;;;;5035202;28;20032;-64
2022/11/22 08:50:58;;;;;;;0.65;0.40;;;23.30;57.70;;;;;;5029779;28;20017;-64
2022/11/22 08:53:25;;;;;;;1.67;0.60;;;23.40;57.90;;;;;;5037475;28;20433;-64
2022/11/22 08:55:51;;;;;;;0.90;0.75;;;23.40;57.60;;;;;;5023485;28;20620;-65
2022/11/22 08:58:17;;;;;;;2.00;1.15;;;23.40;57.60;;;;;;5030288;28;20025;-64
2022/11/22 09:00:43;;;;;;;3.17;0.70;;;23.40;57.50;;;;;;5028958;28;20444;-64
2022/11/22 09:03:09;;;;;;;0.85;0.57;;;23.40;57.50;;;;;;5032481;28;20030;-64
2022/11/22 09:05:35;;;;;;;1.63;0.60;;;23.40;57.70;;;;;;5031239;28;20384;-64
2022/11/22 09:08:01;;;;;;;0.75;0.50;;;23.40;57.50;;;;;;5031063;28;20101;-65
2022/11/22 09:10:26;;;;;;;0.43;0.40;;;23.40;57.60;;;;;;5024580;28;20032;-63
2022/11/22 09:12:52;;;;;;;0.60;0.60;;;23.40;57.90;;;;;;5025026;28;20024;-64
2022/11/22 09:15:18;;;;;;;0.90;0.52;;;23.50;57.80;;;;;;5027860;28;20037;-64
2022/11/22 09:17:43;;;;;;;0.60;0.50;;;23.50;58.10;;;;;;5037878;28;20117;-64
2022/11/22 09:20:10;;;;;;;1.20;0.52;;;23.50;57.90;;;;;;5041783;28;20082;-64
2022/11/22 09:22:36;;;;;;;1.48;0.55;;;23.50;58.00;;;;;;5032393;28;20338;-64
2022/11/22 09:25:04;;;;;;;1.67;0.88;;;23.60;57.20;;;;;;5025298;28;20039;-63
2022/11/22 09:27:30;;;;;;;1.80;1.02;;;23.60;53.80;;;;;;5040783;28;20021;-64
2022/11/22 09:29:56;;;;;;;1.35;0.80;;;23.50;52.90;;;;;;5028481;28;20088;-64
2022/11/22 09:32:21;;;;;;;1.88;0.77;;;23.50;52.50;;;;;;5015099;28;20474;-64
2022/11/22 09:34:47;;;;;;;0.95;0.80;;;23.40;52.50;;;;;;5033630;28;20158;-65
2022/11/22 09:37:17;;;;;;;1.30;0.70;;;23.40;53.10;;;;;;5030758;28;20440;-63
2022/11/22 09:39:45;;;;;;;0.75;0.70;;;23.40;53.60;;;;;;5036373;28;20481;-64
2022/11/22 09:42:23;;;;;;;0.60;0.60;;;23.40;54.00;;;;;;5030301;28;20033;-63
2022/11/22 09:45:22;;;;;;;1.23;0.80;;;23.40;54.30;;;;;;5028619;28;20080;-64
2022/11/22 09:47:57;;;;;;;;;;;23.40;54.60;;;;;;5035826;28;20036;-64
2022/11/22 09:50:50;;;;;;;1.20;0.80;;;23.40;54.90;;;;;;5034151;28;20004;-65
2022/11/22 09:53:34;;;;;;;1.08;0.70;;;23.50;55.30;;;;;;5046777;28;20040;-64
2022/11/22 09:56:03;;;;;;;1.15;0.90;;;23.50;55.90;;;;;;5031716;28;20030;-63
2022/11/22 09:58:35;;;;;;;1.02;0.70;;;23.50;55.90;;;;;;5028853;28;20038;-65
2022/11/22 10:01:15;;;;;;;0.85;0.60;;;23.50;56.00;;;;;;5029484;28;20498;-64
2022/11/22 10:04:00;;;;;;;0.90;0.70;;;23.50;56.20;;;;;;5021753;28;20473;-64
2022/11/22 10:06:32;;;;;;;2.55;0.60;;;23.60;56.40;;;;;;5019533;28;20030;-65
2022/11/22 10:09:15;;;;;;;1.83;0.70;;;23.60;56.60;;;;;;5029237;28;20100;-64
2022/11/22 10:11:43;;;;;;;0.90;0.80;;;23.60;56.60;;;;;;5039809;28;20022;-64
2022/11/22 10:14:28;;;;;;;1.40;0.73;;;23.60;56.70;;;;;;5039402;28;20361;-64
2022/11/22 10:17:09;;;;;;;0.90;0.55;;;23.60;57.10;;;;;;5025847;28;20179;-64
2022/11/22 10:19:40;;;;;;;1.90;0.65;;;23.70;57.20;;;;;;5030044;28;20085;-65
2022/11/22 10:22:13;;;;;;;1.75;0.60;;;23.70;57.00;;;;;;5038208;28;20033;-64
2022/11/22 10:24:41;;;;;;;0.68;0.60;;;23.70;57.20;;;;;;5039183;28;20037;-64
2022/11/22 10:27:14;;;;;;;1.05;0.70;;;23.70;57.30;;;;;;5034217;28;20504;-65
2022/11/22 10:29:58;;;;;;;0.50;0.50;;;23.70;57.40;;;;;;5034568;28;20102;-64
2022/11/22 10:32:39;;;;;;;0.88;0.57;;;23.80;57.40;;;;;;5043228;28;20083;-64
2022/11/22 10:35:13;;;;;;;0.85;0.50;;;23.80;57.50;;;;;;5034313;28;20067;-66
2022/11/22 10:38:04;;;;;;;1.05;0.68;;;23.80;57.60;;;;;;5012574;28;20055;-64
2022/11/22 10:40:32;;;;;;;1.92;0.60;;;23.80;57.60;;;;;;5006110;28;20398;-64
2022/11/22 10:43:10;;;;;;;0.88;0.60;;;23.90;57.90;;;;;;5025866;28;20037;-64
2022/11/22 10:45:51;;;;;;;1.13;0.60;;;23.90;57.90;;;;;;5026212;28;20035;-64
2022/11/22 10:48:42;;;;;;;1.58;0.80;;;23.90;57.30;;;;;;5030659;28;20032;-65
2022/11/22 10:51:26;;;;;;;1.60;0.90;;;23.90;53.70;;;;;;5028566;28;20481;-66
2022/11/22 10:54:03;;;;;;;1.52;0.90;;;23.80;52.90;;;;;;5024189;28;20026;-64
2022/11/22 10:56:36;;;;;;;1.65;0.85;;;23.80;52.60;;;;;;5023468;28;20021;-64
2022/11/22 10:59:14;;;;;;;1.77;0.90;;;23.70;52.40;;;;;;5023601;28;20084;-65
2022/11/22 11:02:35;;;;;;;1.50;1.00;;;23.70;52.90;;;;;;5039018;28;20026;-65
2022/11/22 11:05:05;;;;;;;1.83;1.00;;;23.70;52.30;;;;;;4989642;28;20299;-65
2022/11/22 11:07:31;;;;;;;2.22;0.90;;;23.60;52.30;;;;;;5039303;28;20029;-65
2022/11/22 11:10:16;;;;;;;1.52;0.90;;;23.60;52.30;;;;;;5030073;28;20033;-65
2022/11/22 11:12:55;;;;;;;1.83;0.90;;;23.50;52.40;;;;;;5029933;28;20380;-66
2022/11/22 11:15:40;;;;;;;1.38;0.90;;;23.50;52.40;;;;;;5027438;28;20026;-65
2022/11/22 11:18:43;;;;;;;1.52;0.95;;;23.50;52.50;;;;;;5027042;28;20504;-65
2022/11/22 11:21:12;;;;;;;1.17;0.80;;;23.50;52.50;;;;;;5032016;28;20509;-65
2022/11/22 11:23:38;;;;;;;1.15;0.80;;;23.40;52.40;;;;;;5028244;28;20037;-65
2022/11/22 11:26:23;;;;;;;1.40;0.93;;;23.40;52.50;;;;;;5031290;28;20041;-66
2022/11/22 11:28:49;;;;;;;1.15;0.80;;;23.40;52.60;;;;;;5027141;28;20040;-66
2022/11/22 11:31:17;;;;;;;1.23;0.80;;;23.40;52.60;;;;;;5030004;28;20457;-65
2022/11/22 11:33:44;;;;;;;1.33;0.90;;;23.40;52.70;;;;;;5030007;28;20544;-63
2022/11/22 11:36:16;;;;;;;1.65;0.70;;;23.40;52.70;;;;;;5026415;28;20178;-66
2022/11/22 11:38:42;;;;;;;2.22;0.93;;;23.30;52.70;;;;;;5034269;28;20550;-64
2022/11/22 11:41:32;;;;;;;1.27;0.80;;;23.30;52.80;;;;;;5028955;28;20060;-64
2022/11/22 11:44:00;;;;;;;2.15;1.05;;;23.30;52.80;;;;;;5024545;28;20033;-64
2022/11/22 11:46:44;;;;;;;1.33;0.85;;;23.30;53.00;;;;;;5023058;28;20032;-64
2022/11/22 11:49:19;;;;;;;2.17;0.90;;;23.30;52.90;;;;;;5028250;28;20038;-64
2022/11/22 11:52:08;;;;;;;2.17;0.90;;;23.20;52.90;;;;;;5024586;28;20485;-63
2022/11/22 11:54:37;;;;;;;1.60;0.90;;;23.30;53.00;;;;;;5031453;28;20033;-64
2022/11/22 11:57:03;;;;;;;1.40;0.90;;;23.20;53.00;;;;;;5039957;28;20486;-63
2022/11/22 11:59:35;;;;;;;2.45;0.80;;;23.20;53.00;;;;;;5033440;28;20033;-64
2022/11/22 12:02:13;;;;;;;1.25;0.80;;;23.20;53.20;;;;;;5031560;28;20033;-64
2022/11/22 12:05:04;;;;;;;2.57;0.87;;;23.20;53.70;;;;;;5026599;28;20488;-64
2022/11/22 12:07:32;;;;;;;1.08;0.80;;;23.20;53.20;;;;;;5035453;28;20723;-63
2022/11/22 12:09:58;;;;;;;0.93;0.77;;;23.10;53.10;;;;;;5034306;28;20579;-64
2022/11/22 12:12:48;;;;;;;1.33;0.73;;;23.10;53.20;;;;;;5028761;28;20109;-63
2022/11/22 12:15:25;;;;;;;1.90;0.90;;;23.10;53.20;;;;;;5035238;28;20025;-63
2022/11/22 12:18:11;;;;;;;1.00;0.70;;;23.10;53.30;;;;;;5025183;28;20030;-63
2022/11/22 12:20:47;;;;;;;1.08;0.70;;;23.10;53.30;;;;;;5030026;28;20029;-66
2022/11/22 12:23:23;;;;;;;1.10;0.70;;;23.20;53.40;;;;;;5018875;28;20021;-66
2022/11/22 12:25:52;;;;;;;0.90;0.63;;;23.20;53.40;;;;;;5020815;28;20041;-64
2022/11/22 12:28:22;;;;;;;1.05;0.80;;;23.10;53.40;;;;;;5028637;28;20041;-65
2022/11/22 12:31:03;;;;;;;1.27;0.68;;;23.10;53.40;;;;;;5027686;28;20476;-65
2022/11/22 12:33:35;;;;;;;1.00;0.70;;;23.10;53.40;;;;;;5024131;28;20022;-65
2022/11/22 12:36:05;;;;;;;1.00;0.70;;;23.20;53.40;;;;;;5025330;28;20497;-66
2022/11/22 12:38:35;;;;;;;1.05;0.80;;;23.10;53.40;;;;;;5020265;28;20029;-65
2022/11/22 12:41:06;;;;;;;1.00;0.70;;;23.20;53.50;;;;;;5029431;28;20033;-67
2022/11/22 12:43:57;;;;;;;1.27;0.80;;;23.10;53.40;;;;;;5021953;28;20036;-66
2022/11/22 12:46:32;;;;;;;1.30;0.70;;;23.20;53.50;;;;;;5040629;28;20033;-66
2022/11/22 12:49:10;;;;;;;1.02;0.70;;;23.10;53.50;;;;;;5022500;28;20468;-67
2022/11/22 12:51:48;;;;;;;0.95;0.70;;;23.20;53.60;;;;;;5038117;28;20441;-64
2022/11/22 12:54:43;;;;;;;1.38;0.65;;;23.20;53.50;;;;;;5034448;28;20094;-64
2022/11/22 12:57:34;;;;;;;1.17;0.65;;;23.20;53.60;;;;;;5035712;28;20477;-64
2022/11/22 13:00:33;;;;;;;1.08;0.77;;;23.20;53.50;;;;;;5020904;28;20115;-65
2022/11/22 13:03:14;;;;;;;1.35;0.95;;;23.20;53.60;;;;;;5011747;28;20117;-66
2022/11/22 13:05:48;;;;;;;1.10;0.80;;;23.20;54.10;;;;;;5029828;28;20040;-64
2022/11/22 13:08:20;;;;;;;1.35;0.80;;;23.20;53.50;;;;;;5026816;28;20034;-64
2022/11/22 13:10:55;;;;;;;0.77;0.70;;;23.20;53.60;;;;;;5026098;28;20393;-66
2022/11/22 13:13:26;;;;;;;1.23;0.70;;;23.20;53.50;;;;;;5023954;28;20473;-65